sensor_id;sensor_type;location;lat;lon;timestamp;temperature;humidity
7445;DHT22;3764;48.126;11.594;2023-06-10T00:02:05;19.30;99.90
7445;DHT22;3764;48.126;11.594;2023-06-10T00:04:33;19.30;99.90
7445;DHT22;3764;48.126;11.594;2023-06-10T00:07:02;19.20;99.90
7445;DHT22;3764;48.126;11.594;2023-06-10T00:09:29;19.20;99.90
7445;DHT22;3764;48.126;11.594;2023-06-10T00:11:57;19.20;99.90
7445;DHT22;3764;48.126;11.594;2023-06-10T00:14:27;19.20;99.90
7445;DHT22;3764;48.126;11.594;2023-06-10T00:16:55;19.20;99.90
7445;DHT22;3764;48.126;11.594;2023-06-10T00:19:23;19.10;99.90
7445;DHT22;3764;48.126;11.594;2023-06-10T00:21:51;19.10;99.90
7445;DHT22;3764;48.126;11.594;2023-06-10T00:24:19;19.10;99.90
7445;DHT22;3764;48.126;11.594;2023-06-10T00:26:46;19.10;99.90
7445;DHT22;3764;48.126;11.594;2023-06-10T00:29:13;19.10;99.90
7445;DHT22;3764;48.126;11.594;2023-06-10T00:31:43;19.00;99.90
7445;DHT22;3764;48.126;11.594;2023-06-10T00:34:11;19.00;99.90
7445;DHT22;3764;48.126;11.594;2023-06-10T00:36:38;19.00;99.90
7445;DHT22;3764;48.126;11.594;2023-06-10T00:39:05;19.00;99.90
7445;DHT22;3764;48.126;11.594;2023-06-10T00:41:32;19.00;99.90
7445;DHT22;3764;48.126;11.594;2023-06-10T00:44:00;18.90;99.90
7445;DHT22;3764;48.126;11.594;2023-06-10T00:46:27;18.90;99.90
7445;DHT22;3764;48.126;11.594;2023-06-10T00:48:56;18.80;99.90
7445;DHT22;3764;48.126;11.594;2023-06-10T00:51:23;18.80;99.90
7445;DHT22;3764;48.126;11.594;2023-06-10T00:53:52;18.70;99.90
7445;DHT22;3764;48.126;11.594;2023-06-10T00:56:20;18.70;99.90
7445;DHT22;3764;48.126;11.594;2023-06-10T00:58:48;18.70;99.90
7445;DHT22;3764;48.126;11.594;2023-06-10T01:01:16;18.70;99.90
7445;DHT22;3764;48.126;11.594;2023-06-10T01:03:43;18.70;99.90
7445;DHT22;3764;48.126;11.594;2023-06-10T01:06:20;18.70;99.90
7445;DHT22;3764;48.126;11.594;2023-06-10T01:08:54;18.60;99.90
7445;DHT22;3764;48.126;11.594;2023-06-10T01:11:28;18.60;99.90
7445;DHT22;3764;48.126;11.594;2023-06-10T01:13:56;18.60;99.90
7445;DHT22;3764;48.126;11.594;2023-06-10T01:16:25;18.60;99.90
7445;DHT22;3764;48.126;11.594;2023-06-10T01:18:52;18.50;99.90
7445;DHT22;3764;48.126;11.594;2023-06-10T01:21:22;18.50;99.90
7445;DHT22;3764;48.126;11.594;2023-06-10T01:23:51;18.50;99.90
7445;DHT22;3764;48.126;11.594;2023-06-10T01:26:20;18.50;99.90
7445;DHT22;3764;48.126;11.594;2023-06-10T01:28:51;18.40;99.90
7445;DHT22;3764;48.126;11.594;2023-06-10T01:31:27;18.50;99.90
7445;DHT22;3764;48.126;11.594;2023-06-10T01:34:00;18.40;99.90
7445;DHT22;3764;48.126;11.594;2023-06-10T01:36:29;18.40;99.90
7445;DHT22;3764;48.126;11.594;2023-06-10T01:38:59;18.40;99.90
7445;DHT22;3764;48.126;11.594;2023-06-10T01:41:27;18.40;99.90
7445;DHT22;3764;48.126;11.594;2023-06-10T01:43:55;18.30;99.90
7445;DHT22;3764;48.126;11.594;2023-06-10T01:46:22;18.30;99.90
7445;DHT22;3764;48.126;11.594;2023-06-10T01:48:49;18.30;99.90
7445;DHT22;3764;48.126;11.594;2023-06-10T01:51:16;18.30;99.90
7445;DHT22;3764;48.126;11.594;2023-06-10T01:53:45;18.30;99.90
7445;DHT22;3764;48.126;11.594;2023-06-10T01:56:12;18.20;99.90
7445;DHT22;3764;48.126;11.594;2023-06-10T01:58:42;18.20;99.90
7445;DHT22;3764;48.126;11.594;2023-06-10T02:01:10;18.20;99.90
7445;DHT22;3764;48.126;11.594;2023-06-10T02:03:37;18.20;99.90
7445;DHT22;3764;48.126;11.594;2023-06-10T02:06:04;18.10;99.90
7445;DHT22;3764;48.126;11.594;2023-06-10T02:08:31;18.10;99.90
7445;DHT22;3764;48.126;11.594;2023-06-10T02:11:00;18.10;99.90
7445;DHT22;3764;48.126;11.594;2023-06-10T02:13:27;18.10;99.90
7445;DHT22;3764;48.126;11.594;2023-06-10T02:15:54;18.10;99.90
7445;DHT22;3764;48.126;11.594;2023-06-10T02:18:21;18.10;99.90
7445;DHT22;3764;48.126;11.594;2023-06-10T02:20:48;18.00;99.90
7445;DHT22;3764;48.126;11.594;2023-06-10T02:23:15;18.00;99.90
7445;DHT22;3764;48.126;11.594;2023-06-10T02:25:43;18.00;99.90
7445;DHT22;3764;48.126;11.594;2023-06-10T02:28:11;18.00;99.90
7445;DHT22;3764;48.126;11.594;2023-06-10T02:30:39;18.00;99.90
7445;DHT22;3764;48.126;11.594;2023-06-10T02:33:07;17.90;99.90
7445;DHT22;3764;48.126;11.594;2023-06-10T02:35:36;17.90;99.90
7445;DHT22;3764;48.126;11.594;2023-06-10T02:38:03;17.90;99.90
7445;DHT22;3764;48.126;11.594;2023-06-10T02:40:31;17.80;99.90
7445;DHT22;3764;48.126;11.594;2023-06-10T02:42:58;17.80;99.90
7445;DHT22;3764;48.126;11.594;2023-06-10T02:45:26;17.80;99.90
7445;DHT22;3764;48.126;11.594;2023-06-10T02:47:53;17.80;99.90
7445;DHT22;3764;48.126;11.594;2023-06-10T02:50:21;17.80;99.90
7445;DHT22;3764;48.126;11.594;2023-06-10T02:52:48;17.70;99.90
7445;DHT22;3764;48.126;11.594;2023-06-10T02:55:15;17.80;99.90
7445;DHT22;3764;48.126;11.594;2023-06-10T02:57:43;17.70;99.90
7445;DHT22;3764;48.126;11.594;2023-06-10T03:00:10;17.70;99.90
7445;DHT22;3764;48.126;11.594;2023-06-10T03:02:41;17.70;99.90
7445;DHT22;3764;48.126;11.594;2023-06-10T03:05:08;17.70;99.90
7445;DHT22;3764;48.126;11.594;2023-06-10T03:07:36;17.70;99.90
7445;DHT22;3764;48.126;11.594;2023-06-10T03:10:05;17.70;99.90
7445;DHT22;3764;48.126;11.594;2023-06-10T03:12:32;17.60;99.90
7445;DHT22;3764;48.126;11.594;2023-06-10T03:14:59;17.60;99.90
7445;DHT22;3764;48.126;11.594;2023-06-10T03:17:26;17.60;99.90
7445;DHT22;3764;48.126;11.594;2023-06-10T03:19:55;17.60;99.90
7445;DHT22;3764;48.126;11.594;2023-06-10T03:22:22;17.60;99.90
7445;DHT22;3764;48.126;11.594;2023-06-10T03:24:49;17.60;99.90
7445;DHT22;3764;48.126;11.594;2023-06-10T03:27:17;17.60;99.90
7445;DHT22;3764;48.126;11.594;2023-06-10T03:29:44;17.60;99.90
7445;DHT22;3764;48.126;11.594;2023-06-10T03:32:11;17.50;99.90
7445;DHT22;3764;48.126;11.594;2023-06-10T03:34:38;17.50;99.90
7445;DHT22;3764;48.126;11.594;2023-06-10T03:37:07;17.50;99.90
7445;DHT22;3764;48.126;11.594;2023-06-10T03:39:34;17.50;99.90
7445;DHT22;3764;48.126;11.594;2023-06-10T03:42:01;17.50;99.90
7445;DHT22;3764;48.126;11.594;2023-06-10T03:44:28;17.50;99.90
7445;DHT22;3764;48.126;11.594;2023-06-10T03:46:56;17.50;99.90
7445;DHT22;3764;48.126;11.594;2023-06-10T03:49:23;17.50;99.90
7445;DHT22;3764;48.126;11.594;2023-06-10T03:51:52;17.50;99.90
7445;DHT22;3764;48.126;11.594;2023-06-10T03:54:22;17.50;99.90
7445;DHT22;3764;48.126;11.594;2023-06-10T03:56:49;17.50;99.90
7445;DHT22;3764;48.126;11.594;2023-06-10T03:59:16;17.40;99.90
7445;DHT22;3764;48.126;11.594;2023-06-10T04:01:43;17.50;99.90
7445;DHT22;3764;48.126;11.594;2023-06-10T04:04:13;17.50;99.90
7445;DHT22;3764;48.126;11.594;2023-06-10T04:06:40;17.60;99.90
7445;DHT22;3764;48.126;11.594;2023-06-10T04:09:09;17.70;99.90
7445;DHT22;3764;48.126;11.594;2023-06-10T04:11:38;17.80;99.90
7445;DHT22;3764;48.126;11.594;2023-06-10T04:14:05;17.80;99.90
7445;DHT22;3764;48.126;11.594;2023-06-10T04:16:32;17.80;99.90
7445;DHT22;3764;48.126;11.594;2023-06-10T04:18:59;17.90;99.90
7445;DHT22;3764;48.126;11.594;2023-06-10T04:21:26;17.90;99.90
7445;DHT22;3764;48.126;11.594;2023-06-10T04:23:54;18.00;99.90
7445;DHT22;3764;48.126;11.594;2023-06-10T04:26:21;18.00;99.90
7445;DHT22;3764;48.126;11.594;2023-06-10T04:28:50;18.00;99.90
7445;DHT22;3764;48.126;11.594;2023-06-10T04:31:17;18.00;99.90
7445;DHT22;3764;48.126;11.594;2023-06-10T04:33:44;18.00;99.90
7445;DHT22;3764;48.126;11.594;2023-06-10T04:36:11;18.00;99.90
7445;DHT22;3764;48.126;11.594;2023-06-10T04:38:38;18.00;99.90
7445;DHT22;3764;48.126;11.594;2023-06-10T04:41:06;18.00;99.90
7445;DHT22;3764;48.126;11.594;2023-06-10T04:43:33;18.00;99.90
7445;DHT22;3764;48.126;11.594;2023-06-10T04:46:02;17.90;99.90
7445;DHT22;3764;48.126;11.594;2023-06-10T04:48:29;17.90;99.90
7445;DHT22;3764;48.126;11.594;2023-06-10T04:50:56;17.90;99.90
7445;DHT22;3764;48.126;11.594;2023-06-10T04:53:23;18.00;99.90
7445;DHT22;3764;48.126;11.594;2023-06-10T04:55:50;18.00;99.90
7445;DHT22;3764;48.126;11.594;2023-06-10T04:58:17;18.00;99.90
7445;DHT22;3764;48.126;11.594;2023-06-10T05:00:44;18.00;99.90
7445;DHT22;3764;48.126;11.594;2023-06-10T05:03:13;18.10;99.90
7445;DHT22;3764;48.126;11.594;2023-06-10T05:05:40;18.10;99.90
7445;DHT22;3764;48.126;11.594;2023-06-10T05:08:07;18.10;99.90
7445;DHT22;3764;48.126;11.594;2023-06-10T05:10:34;18.10;99.90
7445;DHT22;3764;48.126;11.594;2023-06-10T05:13:01;18.10;99.90
7445;DHT22;3764;48.126;11.594;2023-06-10T05:15:29;18.10;99.90
7445;DHT22;3764;48.126;11.594;2023-06-10T05:17:57;18.10;99.90
7445;DHT22;3764;48.126;11.594;2023-06-10T05:20:25;18.10;99.90
7445;DHT22;3764;48.126;11.594;2023-06-10T05:22:54;18.20;99.90
7445;DHT22;3764;48.126;11.594;2023-06-10T05:25:21;18.20;99.90
7445;DHT22;3764;48.126;11.594;2023-06-10T05:27:48;18.20;99.90
7445;DHT22;3764;48.126;11.594;2023-06-10T05:30:15;18.30;99.90
7445;DHT22;3764;48.126;11.594;2023-06-10T05:32:44;18.20;99.90
7445;DHT22;3764;48.126;11.594;2023-06-10T05:35:11;18.20;99.90
7445;DHT22;3764;48.126;11.594;2023-06-10T05:37:39;18.20;99.90
7445;DHT22;3764;48.126;11.594;2023-06-10T05:40:08;18.10;99.90
7445;DHT22;3764;48.126;11.594;2023-06-10T05:42:35;18.10;99.90
7445;DHT22;3764;48.126;11.594;2023-06-10T05:45:02;18.10;99.90
7445;DHT22;3764;48.126;11.594;2023-06-10T05:47:29;18.20;99.90
7445;DHT22;3764;48.126;11.594;2023-06-10T05:49:56;18.20;99.90
7445;DHT22;3764;48.126;11.594;2023-06-10T05:52:24;18.20;99.90
7445;DHT22;3764;48.126;11.594;2023-06-10T05:54:53;18.30;99.90
7445;DHT22;3764;48.126;11.594;2023-06-10T05:57:20;18.30;99.90
7445;DHT22;3764;48.126;11.594;2023-06-10T05:59:47;18.30;99.90
7445;DHT22;3764;48.126;11.594;2023-06-10T06:02:14;18.30;99.90
7445;DHT22;3764;48.126;11.594;2023-06-10T06:04:41;18.40;99.90
7445;DHT22;3764;48.126;11.594;2023-06-10T06:07:08;18.40;99.90
7445;DHT22;3764;48.126;11.594;2023-06-10T06:09:35;18.40;99.90
7445;DHT22;3764;48.126;11.594;2023-06-10T06:12:05;18.40;99.90
7445;DHT22;3764;48.126;11.594;2023-06-10T06:14:36;18.40;99.90
7445;DHT22;3764;48.126;11.594;2023-06-10T06:17:03;18.40;99.90
7445;DHT22;3764;48.126;11.594;2023-06-10T06:19:31;18.50;99.90
7445;DHT22;3764;48.126;11.594;2023-06-10T06:21:58;18.50;99.90
7445;DHT22;3764;48.126;11.594;2023-06-10T06:24:25;18.40;99.90
7445;DHT22;3764;48.126;11.594;2023-06-10T06:26:52;18.40;99.90
7445;DHT22;3764;48.126;11.594;2023-06-10T06:29:20;18.40;99.90
7445;DHT22;3764;48.126;11.594;2023-06-10T06:31:48;18.40;99.90
7445;DHT22;3764;48.126;11.594;2023-06-10T06:34:15;18.40;99.90
7445;DHT22;3764;48.126;11.594;2023-06-10T06:36:42;18.40;99.90
7445;DHT22;3764;48.126;11.594;2023-06-10T06:39:09;18.50;99.90
7445;DHT22;3764;48.126;11.594;2023-06-10T06:41:36;18.50;99.90
7445;DHT22;3764;48.126;11.594;2023-06-10T06:44:03;18.50;99.90
7445;DHT22;3764;48.126;11.594;2023-06-10T06:46:32;18.50;99.90
7445;DHT22;3764;48.126;11.594;2023-06-10T06:48:59;18.60;99.90
7445;DHT22;3764;48.126;11.594;2023-06-10T06:51:26;18.60;99.90
7445;DHT22;3764;48.126;11.594;2023-06-10T06:53:53;18.60;99.90
7445;DHT22;3764;48.126;11.594;2023-06-10T06:56:24;18.60;99.90
7445;DHT22;3764;48.126;11.594;2023-06-10T06:58:52;18.60;99.90
7445;DHT22;3764;48.126;11.594;2023-06-10T07:01:19;18.70;99.90
7445;DHT22;3764;48.126;11.594;2023-06-10T07:03:48;18.70;99.90
7445;DHT22;3764;48.126;11.594;2023-06-10T07:06:15;18.70;99.90
7445;DHT22;3764;48.126;11.594;2023-06-10T07:08:42;18.70;99.90
7445;DHT22;3764;48.126;11.594;2023-06-10T07:11:10;18.70;99.90
7445;DHT22;3764;48.126;11.594;2023-06-10T07:13:37;18.80;99.90
7445;DHT22;3764;48.126;11.594;2023-06-10T07:16:04;18.80;99.90
7445;DHT22;3764;48.126;11.594;2023-06-10T07:18:31;18.80;99.90
7445;DHT22;3764;48.126;11.594;2023-06-10T07:21:00;18.80;99.90
7445;DHT22;3764;48.126;11.594;2023-06-10T07:23:27;18.90;99.90
7445;DHT22;3764;48.126;11.594;2023-06-10T07:25:54;18.90;99.90
7445;DHT22;3764;48.126;11.594;2023-06-10T07:28:21;18.90;99.90
7445;DHT22;3764;48.126;11.594;2023-06-10T07:30:48;18.90;99.90
7445;DHT22;3764;48.126;11.594;2023-06-10T07:33:15;18.90;99.90
7445;DHT22;3764;48.126;11.594;2023-06-10T07:35:42;18.90;99.90
7445;DHT22;3764;48.126;11.594;2023-06-10T07:38:11;18.90;99.90
7445;DHT22;3764;48.126;11.594;2023-06-10T07:40:38;18.90;99.90
7445;DHT22;3764;48.126;11.594;2023-06-10T07:43:05;19.00;99.90
7445;DHT22;3764;48.126;11.594;2023-06-10T07:45:32;19.00;99.90
7445;DHT22;3764;48.126;11.594;2023-06-10T07:47:59;19.10;99.90
7445;DHT22;3764;48.126;11.594;2023-06-10T07:50:26;19.00;99.90
7445;DHT22;3764;48.126;11.594;2023-06-10T07:52:54;19.10;99.90
7445;DHT22;3764;48.126;11.594;2023-06-10T07:55:22;19.10;99.90
7445;DHT22;3764;48.126;11.594;2023-06-10T07:57:51;19.10;99.90
7445;DHT22;3764;48.126;11.594;2023-06-10T08:00:19;19.10;99.90
7445;DHT22;3764;48.126;11.594;2023-06-10T08:02:46;19.20;99.90
7445;DHT22;3764;48.126;11.594;2023-06-10T08:05:13;19.20;99.90
7445;DHT22;3764;48.126;11.594;2023-06-10T08:07:41;19.20;99.90
7445;DHT22;3764;48.126;11.594;2023-06-10T08:10:08;19.20;99.90
7445;DHT22;3764;48.126;11.594;2023-06-10T08:12:37;19.30;99.90
7445;DHT22;3764;48.126;11.594;2023-06-10T08:15:05;19.40;99.90
7445;DHT22;3764;48.126;11.594;2023-06-10T08:17:33;19.40;99.90
7445;DHT22;3764;48.126;11.594;2023-06-10T08:20:01;19.40;99.90
7445;DHT22;3764;48.126;11.594;2023-06-10T08:22:28;19.50;99.90
7445;DHT22;3764;48.126;11.594;2023-06-10T08:24:55;19.50;99.90
7445;DHT22;3764;48.126;11.594;2023-06-10T08:27:23;19.60;99.90
7445;DHT22;3764;48.126;11.594;2023-06-10T08:29:52;19.60;99.90
7445;DHT22;3764;48.126;11.594;2023-06-10T08:32:19;19.70;99.90
7445;DHT22;3764;48.126;11.594;2023-06-10T08:34:46;19.70;99.90
7445;DHT22;3764;48.126;11.594;2023-06-10T08:37:13;19.70;99.90
7445;DHT22;3764;48.126;11.594;2023-06-10T08:39:40;19.70;99.90
7445;DHT22;3764;48.126;11.594;2023-06-10T08:42:15;19.80;99.90
7445;DHT22;3764;48.126;11.594;2023-06-10T08:44:49;19.90;99.90
7445;DHT22;3764;48.126;11.594;2023-06-10T08:47:22;19.90;99.90
7445;DHT22;3764;48.126;11.594;2023-06-10T08:49:51;19.90;99.90
7445;DHT22;3764;48.126;11.594;2023-06-10T08:52:20;20.00;99.90
7445;DHT22;3764;48.126;11.594;2023-06-10T08:54:56;20.00;99.90
7445;DHT22;3764;48.126;11.594;2023-06-10T08:57:24;20.00;99.90
7445;DHT22;3764;48.126;11.594;2023-06-10T08:59:53;20.00;99.90
7445;DHT22;3764;48.126;11.594;2023-06-10T09:02:22;20.00;99.90
7445;DHT22;3764;48.126;11.594;2023-06-10T09:04:50;20.10;99.90
7445;DHT22;3764;48.126;11.594;2023-06-10T09:07:19;20.10;99.90
7445;DHT22;3764;48.126;11.594;2023-06-10T09:09:48;20.20;99.90
7445;DHT22;3764;48.126;11.594;2023-06-10T09:12:16;20.20;99.90
7445;DHT22;3764;48.126;11.594;2023-06-10T09:14:43;20.30;99.90
7445;DHT22;3764;48.126;11.594;2023-06-10T09:17:10;20.30;99.90
7445;DHT22;3764;48.126;11.594;2023-06-10T09:19:40;20.40;99.90
7445;DHT22;3764;48.126;11.594;2023-06-10T09:22:08;20.40;99.90
7445;DHT22;3764;48.126;11.594;2023-06-10T09:24:35;20.40;99.90
7445;DHT22;3764;48.126;11.594;2023-06-10T09:27:03;20.40;99.90
7445;DHT22;3764;48.126;11.594;2023-06-10T09:29:31;20.50;99.90
7445;DHT22;3764;48.126;11.594;2023-06-10T09:31:59;20.50;99.90
7445;DHT22;3764;48.126;11.594;2023-06-10T09:34:26;20.50;99.90
7445;DHT22;3764;48.126;11.594;2023-06-10T09:36:54;20.50;99.90
7445;DHT22;3764;48.126;11.594;2023-06-10T09:39:21;20.60;99.90
7445;DHT22;3764;48.126;11.594;2023-06-10T09:41:49;20.60;99.90
7445;DHT22;3764;48.126;11.594;2023-06-10T09:44:17;20.60;99.90
7445;DHT22;3764;48.126;11.594;2023-06-10T09:46:46;20.70;99.90
7445;DHT22;3764;48.126;11.594;2023-06-10T09:49:13;20.70;99.90
7445;DHT22;3764;48.126;11.594;2023-06-10T09:51:49;20.80;99.90
7445;DHT22;3764;48.126;11.594;2023-06-10T09:54:19;20.70;99.90
7445;DHT22;3764;48.126;11.594;2023-06-10T09:56:47;20.80;99.90
7445;DHT22;3764;48.126;11.594;2023-06-10T09:59:15;20.80;99.90
7445;DHT22;3764;48.126;11.594;2023-06-10T10:01:42;20.80;99.90
7445;DHT22;3764;48.126;11.594;2023-06-10T10:04:09;20.90;99.90
7445;DHT22;3764;48.126;11.594;2023-06-10T10:06:36;20.90;99.90
7445;DHT22;3764;48.126;11.594;2023-06-10T10:09:04;20.90;99.90
7445;DHT22;3764;48.126;11.594;2023-06-10T10:11:33;21.00;99.90
7445;DHT22;3764;48.126;11.594;2023-06-10T10:14:04;21.00;99.90
7445;DHT22;3764;48.126;11.594;2023-06-10T10:16:36;21.00;99.90
7445;DHT22;3764;48.126;11.594;2023-06-10T10:19:10;21.10;99.90
7445;DHT22;3764;48.126;11.594;2023-06-10T10:21:43;21.00;99.90
7445;DHT22;3764;48.126;11.594;2023-06-10T10:24:15;21.00;99.90
7445;DHT22;3764;48.126;11.594;2023-06-10T10:26:46;21.00;99.90
7445;DHT22;3764;48.126;11.594;2023-06-10T10:29:19;21.00;99.90
7445;DHT22;3764;48.126;11.594;2023-06-10T10:31:48;21.00;99.90
7445;DHT22;3764;48.126;11.594;2023-06-10T10:34:21;21.00;99.90
7445;DHT22;3764;48.126;11.594;2023-06-10T10:36:51;20.90;99.90
7445;DHT22;3764;48.126;11.594;2023-06-10T10:39:19;20.90;99.90
7445;DHT22;3764;48.126;11.594;2023-06-10T10:41:49;20.90;99.90
7445;DHT22;3764;48.126;11.594;2023-06-10T10:44:16;20.90;99.90
7445;DHT22;3764;48.126;11.594;2023-06-10T10:46:49;20.90;99.90
7445;DHT22;3764;48.126;11.594;2023-06-10T10:49:17;20.90;99.90
7445;DHT22;3764;48.126;11.594;2023-06-10T10:52:03;20.90;99.90
7445;DHT22;3764;48.126;11.594;2023-06-10T10:54:33;20.80;99.90
7445;DHT22;3764;48.126;11.594;2023-06-10T10:57:15;20.90;99.90
7445;DHT22;3764;48.126;11.594;2023-06-10T10:59:52;20.90;99.90
7445;DHT22;3764;48.126;11.594;2023-06-10T11:02:33;21.00;99.90
7445;DHT22;3764;48.126;11.594;2023-06-10T11:05:01;21.00;99.90
7445;DHT22;3764;48.126;11.594;2023-06-10T11:07:30;21.00;99.90
7445;DHT22;3764;48.126;11.594;2023-06-10T11:09:59;21.00;99.90
7445;DHT22;3764;48.126;11.594;2023-06-10T11:12:47;21.10;99.90
7445;DHT22;3764;48.126;11.594;2023-06-10T11:15:18;21.10;99.90
7445;DHT22;3764;48.126;11.594;2023-06-10T11:18:22;21.20;99.90
7445;DHT22;3764;48.126;11.594;2023-06-10T11:20:58;21.30;99.90
7445;DHT22;3764;48.126;11.594;2023-06-10T11:23:39;21.30;99.90
7445;DHT22;3764;48.126;11.594;2023-06-10T11:26:13;21.40;99.90
7445;DHT22;3764;48.126;11.594;2023-06-10T11:29:09;21.40;99.90
7445;DHT22;3764;48.126;11.594;2023-06-10T11:31:42;21.50;99.90
7445;DHT22;3764;48.126;11.594;2023-06-10T11:34:09;21.50;99.90
7445;DHT22;3764;48.126;11.594;2023-06-10T11:36:38;21.50;99.90
7445;DHT22;3764;48.126;11.594;2023-06-10T11:39:09;21.50;99.90
7445;DHT22;3764;48.126;11.594;2023-06-10T11:41:38;21.50;99.90
7445;DHT22;3764;48.126;11.594;2023-06-10T11:44:09;21.50;99.90
7445;DHT22;3764;48.126;11.594;2023-06-10T11:46:37;21.50;99.90
7445;DHT22;3764;48.126;11.594;2023-06-10T11:49:05;21.50;99.90
7445;DHT22;3764;48.126;11.594;2023-06-10T11:51:34;21.50;99.90
7445;DHT22;3764;48.126;11.594;2023-06-10T11:54:02;21.60;99.90
7445;DHT22;3764;48.126;11.594;2023-06-10T11:56:29;21.60;99.90
7445;DHT22;3764;48.126;11.594;2023-06-10T11:58:58;21.60;99.90
7445;DHT22;3764;48.126;11.594;2023-06-10T12:01:32;21.70;99.90
7445;DHT22;3764;48.126;11.594;2023-06-10T12:04:04;21.70;99.90
7445;DHT22;3764;48.126;11.594;2023-06-10T12:06:38;21.80;99.90
7445;DHT22;3764;48.126;11.594;2023-06-10T12:09:06;21.90;99.90
7445;DHT22;3764;48.126;11.594;2023-06-10T12:11:34;22.00;99.90
7445;DHT22;3764;48.126;11.594;2023-06-10T12:14:01;22.10;99.90
7445;DHT22;3764;48.126;11.594;2023-06-10T12:16:31;22.10;99.90
7445;DHT22;3764;48.126;11.594;2023-06-10T12:19:02;22.20;99.90
7445;DHT22;3764;48.126;11.594;2023-06-10T12:21:31;22.30;99.90
7445;DHT22;3764;48.126;11.594;2023-06-10T12:24:07;22.40;99.90
7445;DHT22;3764;48.126;11.594;2023-06-10T12:26:39;22.50;99.90
7445;DHT22;3764;48.126;11.594;2023-06-10T12:29:17;22.50;99.90
7445;DHT22;3764;48.126;11.594;2023-06-10T12:32:00;22.70;99.90
7445;DHT22;3764;48.126;11.594;2023-06-10T12:34:36;22.80;99.90
7445;DHT22;3764;48.126;11.594;2023-06-10T12:37:04;22.90;99.90
7445;DHT22;3764;48.126;11.594;2023-06-10T12:39:32;22.90;99.90
7445;DHT22;3764;48.126;11.594;2023-06-10T12:42:00;22.90;99.90
7445;DHT22;3764;48.126;11.594;2023-06-10T12:44:32;23.00;99.90
7445;DHT22;3764;48.126;11.594;2023-06-10T12:47:07;23.00;99.90
7445;DHT22;3764;48.126;11.594;2023-06-10T12:49:35;23.10;99.90
7445;DHT22;3764;48.126;11.594;2023-06-10T12:52:03;23.20;99.90
7445;DHT22;3764;48.126;11.594;2023-06-10T12:54:30;23.20;99.90
7445;DHT22;3764;48.126;11.594;2023-06-10T12:56:58;23.30;99.90
7445;DHT22;3764;48.126;11.594;2023-06-10T12:59:25;23.40;99.90
7445;DHT22;3764;48.126;11.594;2023-06-10T13:01:53;23.60;99.90
7445;DHT22;3764;48.126;11.594;2023-06-10T13:04:21;23.60;99.90
7445;DHT22;3764;48.126;11.594;2023-06-10T13:06:49;23.60;99.90
7445;DHT22;3764;48.126;11.594;2023-06-10T13:09:16;23.50;99.90
7445;DHT22;3764;48.126;11.594;2023-06-10T13:11:43;23.40;99.90
7445;DHT22;3764;48.126;11.594;2023-06-10T13:14:10;23.40;99.90
7445;DHT22;3764;48.126;11.594;2023-06-10T13:16:38;23.30;99.90
7445;DHT22;3764;48.126;11.594;2023-06-10T13:19:08;23.30;99.90
7445;DHT22;3764;48.126;11.594;2023-06-10T13:21:36;23.30;99.90
7445;DHT22;3764;48.126;11.594;2023-06-10T13:24:04;23.30;99.90
7445;DHT22;3764;48.126;11.594;2023-06-10T13:26:31;23.30;99.90
7445;DHT22;3764;48.126;11.594;2023-06-10T13:28:58;23.30;99.90
7445;DHT22;3764;48.126;11.594;2023-06-10T13:31:25;23.20;99.90
7445;DHT22;3764;48.126;11.594;2023-06-10T13:33:52;23.20;99.90
7445;DHT22;3764;48.126;11.594;2023-06-10T13:36:20;23.10;99.90
7445;DHT22;3764;48.126;11.594;2023-06-10T13:38:48;23.10;99.90
7445;DHT22;3764;48.126;11.594;2023-06-10T13:41:15;23.00;99.90
7445;DHT22;3764;48.126;11.594;2023-06-10T13:43:45;23.00;99.90
7445;DHT22;3764;48.126;11.594;2023-06-10T13:46:12;22.90;99.90
7445;DHT22;3764;48.126;11.594;2023-06-10T13:48:39;22.90;99.90
7445;DHT22;3764;48.126;11.594;2023-06-10T13:51:06;22.90;99.90
7445;DHT22;3764;48.126;11.594;2023-06-10T13:53:34;22.90;99.90
7445;DHT22;3764;48.126;11.594;2023-06-10T13:56:04;23.00;99.90
7445;DHT22;3764;48.126;11.594;2023-06-10T13:58:31;23.00;99.90
7445;DHT22;3764;48.126;11.594;2023-06-10T14:00:58;23.00;99.90
7445;DHT22;3764;48.126;11.594;2023-06-10T14:03:25;23.00;99.90
7445;DHT22;3764;48.126;11.594;2023-06-10T14:05:52;23.00;99.90
7445;DHT22;3764;48.126;11.594;2023-06-10T14:08:19;23.00;99.90
7445;DHT22;3764;48.126;11.594;2023-06-10T14:10:47;23.10;99.90
7445;DHT22;3764;48.126;11.594;2023-06-10T14:13:15;23.10;99.90
7445;DHT22;3764;48.126;11.594;2023-06-10T14:15:42;23.10;99.90
7445;DHT22;3764;48.126;11.594;2023-06-10T14:18:10;23.10;99.90
7445;DHT22;3764;48.126;11.594;2023-06-10T14:20:37;23.20;99.90
7445;DHT22;3764;48.126;11.594;2023-06-10T14:23:04;23.20;99.90
7445;DHT22;3764;48.126;11.594;2023-06-10T14:25:31;23.20;99.90
7445;DHT22;3764;48.126;11.594;2023-06-10T14:27:58;23.20;99.90
7445;DHT22;3764;48.126;11.594;2023-06-10T14:30:28;23.20;99.90
7445;DHT22;3764;48.126;11.594;2023-06-10T14:32:55;23.20;99.90
7445;DHT22;3764;48.126;11.594;2023-06-10T14:35:22;23.30;99.90
7445;DHT22;3764;48.126;11.594;2023-06-10T14:37:49;23.40;99.90
7445;DHT22;3764;48.126;11.594;2023-06-10T14:40:16;23.40;99.90
7445;DHT22;3764;48.126;11.594;2023-06-10T14:42:43;23.40;99.90
7445;DHT22;3764;48.126;11.594;2023-06-10T14:45:10;23.40;99.90
7445;DHT22;3764;48.126;11.594;2023-06-10T14:47:39;23.50;99.90
7445;DHT22;3764;48.126;11.594;2023-06-10T14:50:06;23.50;99.90
7445;DHT22;3764;48.126;11.594;2023-06-10T14:52:33;23.50;99.90
7445;DHT22;3764;48.126;11.594;2023-06-10T14:55:00;23.60;99.90
7445;DHT22;3764;48.126;11.594;2023-06-10T14:57:27;23.60;99.90
7445;DHT22;3764;48.126;11.594;2023-06-10T14:59:54;23.70;99.90
7445;DHT22;3764;48.126;11.594;2023-06-10T15:02:22;23.90;99.90
7445;DHT22;3764;48.126;11.594;2023-06-10T15:04:50;24.00;99.90
7445;DHT22;3764;48.126;11.594;2023-06-10T15:07:18;24.10;99.90
7445;DHT22;3764;48.126;11.594;2023-06-10T15:09:45;24.20;99.90
7445;DHT22;3764;48.126;11.594;2023-06-10T15:12:12;24.30;99.90
7445;DHT22;3764;48.126;11.594;2023-06-10T15:14:39;24.40;99.90
7445;DHT22;3764;48.126;11.594;2023-06-10T15:17:06;24.50;99.90
7445;DHT22;3764;48.126;11.594;2023-06-10T15:19:33;24.50;99.90
7445;DHT22;3764;48.126;11.594;2023-06-10T15:22:02;24.50;99.90
7445;DHT22;3764;48.126;11.594;2023-06-10T15:24:30;24.40;99.90
7445;DHT22;3764;48.126;11.594;2023-06-10T15:26:57;24.50;99.90
7445;DHT22;3764;48.126;11.594;2023-06-10T15:29:24;24.50;99.90
7445;DHT22;3764;48.126;11.594;2023-06-10T15:31:51;24.60;99.90
7445;DHT22;3764;48.126;11.594;2023-06-10T15:34:18;24.60;99.90
7445;DHT22;3764;48.126;11.594;2023-06-10T15:36:45;24.70;99.90
7445;DHT22;3764;48.126;11.594;2023-06-10T15:39:13;24.70;99.90
7445;DHT22;3764;48.126;11.594;2023-06-10T15:41:41;24.60;99.90
7445;DHT22;3764;48.126;11.594;2023-06-10T15:44:08;24.60;99.90
7445;DHT22;3764;48.126;11.594;2023-06-10T15:46:35;24.50;99.90
7445;DHT22;3764;48.126;11.594;2023-06-10T15:49:02;24.50;99.90
7445;DHT22;3764;48.126;11.594;2023-06-10T15:51:29;24.50;99.90
7445;DHT22;3764;48.126;11.594;2023-06-10T15:53:56;24.50;99.90